createdAt,value
2017-09-06T00:00:13.841Z,48.04
2017-09-06T00:02:41.427Z,49.16
2017-09-06T00:05:09.180Z,49.79
2017-09-06T00:07:36.792Z,49.91
2017-09-06T00:10:04.622Z,51.02
2017-09-06T00:12:32.273Z,54.26
2017-09-06T00:14:59.839Z,52.18
2017-09-06T00:17:27.420Z,53.68
2017-09-06T00:19:54.983Z,53.37
2017-09-06T00:22:22.662Z,53.30
2017-09-06T00:24:50.288Z,52.69
2017-09-06T00:27:18.188Z,51.96
2017-09-06T00:29:45.765Z,52.29
2017-09-06T00:32:13.537Z,53.86
2017-09-06T00:34:41.119Z,55.37
2017-09-06T00:37:08.658Z,54.70
2017-09-06T00:39:37.017Z,54.63
2017-09-06T00:42:04.795Z,53.80
2017-09-06T00:44:32.595Z,54.08
2017-09-06T00:47:00.182Z,54.10
2017-09-06T00:49:27.946Z,54.42
2017-09-06T00:51:55.489Z,55.88
2017-09-06T00:54:23.200Z,56.46
2017-09-06T00:56:53.954Z,56.71
2017-09-06T00:59:21.739Z,56.55
2017-09-06T01:01:49.555Z,56.82
2017-09-06T01:04:17.375Z,56.79
2017-09-06T01:06:45.108Z,57.38
2017-09-06T01:09:12.911Z,58.22
2017-09-06T01:11:40.579Z,57.73
2017-09-06T01:14:08.341Z,58.03
2017-09-06T01:16:36.162Z,58.23
2017-09-06T01:19:03.957Z,58.60
2017-09-06T01:21:31.876Z,57.95
2017-09-06T01:23:59.528Z,58.08
2017-09-06T01:26:27.073Z,59.78
2017-09-06T01:28:55.689Z,59.83
2017-09-06T01:31:23.306Z,59.91
2017-09-06T01:33:50.893Z,60.72
2017-09-06T01:36:18.514Z,60.11
2017-09-06T01:38:46.112Z,61.01
2017-09-06T01:41:14.013Z,59.62
2017-09-06T01:43:42.772Z,59.46
2017-09-06T01:46:10.402Z,59.36
2017-09-06T01:48:38.006Z,59.73
2017-09-06T01:51:06.057Z,60.19
2017-09-06T01:53:33.696Z,61.29
2017-09-06T01:56:01.580Z,61.39
2017-09-06T01:58:29.379Z,61.56
2017-09-06T02:00:57.003Z,61.18
2017-09-06T02:03:24.632Z,60.36
2017-09-06T02:05:52.314Z,60.73
2017-09-06T02:08:19.922Z,61.15
2017-09-06T02:10:47.636Z,61.20
2017-09-06T02:13:15.190Z,60.60
2017-09-06T02:15:42.812Z,60.41
2017-09-06T02:18:10.387Z,59.60
2017-09-06T02:20:38.444Z,58.58
2017-09-06T02:23:06.520Z,58.54
2017-09-06T02:25:34.207Z,58.10
2017-09-06T02:28:02.139Z,57.83
2017-09-06T02:30:30.015Z,58.25
2017-09-06T02:32:57.588Z,58.39
2017-09-06T02:35:25.151Z,57.81
2017-09-06T02:37:53.267Z,57.99
2017-09-06T02:40:20.871Z,58.04
2017-09-06T02:42:48.445Z,57.83
2017-09-06T02:45:16.623Z,57.25
2017-09-06T02:47:44.220Z,57.53
2017-09-06T02:50:12.106Z,57.34
2017-09-06T02:52:39.878Z,57.54
2017-09-06T02:55:08.274Z,57.47
2017-09-06T02:57:35.880Z,57.75
2017-09-06T03:00:05.701Z,58.23
2017-09-06T03:02:33.506Z,58.69
2017-09-06T03:05:01.183Z,58.63
2017-09-06T03:07:28.848Z,58.49
2017-09-06T03:09:56.478Z,58.39
2017-09-06T03:12:24.089Z,58.21
2017-09-06T03:14:52.217Z,58.05
2017-09-06T03:17:19.767Z,58.45
2017-09-06T03:19:47.357Z,58.53
2017-09-06T03:22:14.983Z,58.69
2017-09-06T03:24:42.579Z,58.16
2017-09-06T03:27:10.167Z,57.52
2017-09-06T03:29:37.772Z,59.59
2017-09-06T03:32:05.325Z,60.54
2017-09-06T03:34:33.307Z,59.95
2017-09-06T03:37:01.740Z,59.24
2017-09-06T03:39:29.376Z,58.95
2017-09-06T03:41:57.015Z,58.17
2017-09-06T03:44:24.743Z,57.79
2017-09-06T03:46:52.399Z,57.55
2017-09-06T03:49:20.193Z,57.52
2017-09-06T03:51:47.977Z,57.51
2017-09-06T03:54:15.558Z,57.12
2017-09-06T03:56:43.318Z,57.08
2017-09-06T03:59:11.072Z,57.74
2017-09-06T04:01:39.473Z,57.85
2017-09-06T04:04:07.088Z,58.01
2017-09-06T04:06:34.669Z,57.74
2017-09-06T04:09:02.340Z,57.38
2017-09-06T04:11:30.663Z,56.98
2017-09-06T04:13:58.245Z,56.81
2017-09-06T04:16:25.882Z,56.99
2017-09-06T04:18:53.461Z,57.73
2017-09-06T04:21:21.113Z,57.66
2017-09-06T04:23:48.996Z,57.96
2017-09-06T04:26:17.538Z,57.35
2017-09-06T04:28:45.119Z,57.42
2017-09-06T04:31:12.712Z,57.07
2017-09-06T04:33:40.240Z,56.86
2017-09-06T04:36:07.788Z,57.08
2017-09-06T04:38:35.373Z,57.31
2017-09-06T04:41:02.941Z,56.52
2017-09-06T04:43:30.475Z,54.66
2017-09-06T04:45:58.128Z,52.14
2017-09-06T04:48:25.774Z,51.97
2017-09-06T04:50:53.617Z,49.96
2017-09-06T04:53:21.373Z,49.88
2017-09-06T04:55:49.155Z,50.75
2017-09-06T04:58:17.043Z,50.30
2017-09-06T05:00:44.794Z,48.00
2017-09-06T05:03:12.687Z,47.20
2017-09-06T05:05:40.570Z,46.13
2017-09-06T05:08:08.253Z,45.44
2017-09-06T05:10:35.830Z,45.09
2017-09-06T05:13:03.524Z,44.39
2017-09-06T05:15:31.250Z,42.99
2017-09-06T05:17:58.822Z,41.68
2017-09-06T05:20:26.545Z,39.09
2017-09-06T05:22:54.191Z,40.48
2017-09-06T05:25:21.829Z,38.67
2017-09-06T05:27:49.640Z,39.74
2017-09-06T05:30:17.433Z,40.17
2017-09-06T05:32:45.081Z,40.20
2017-09-06T05:35:12.666Z,42.58
2017-09-06T05:37:40.303Z,44.55
2017-09-06T05:40:08.072Z,45.74
2017-09-06T05:42:35.935Z,44.76
2017-09-06T05:45:03.525Z,46.26
2017-09-06T05:47:31.112Z,45.97
2017-09-06T05:49:58.674Z,45.43
2017-09-06T05:52:26.632Z,44.53
2017-09-06T05:54:54.358Z,44.46
2017-09-06T05:57:21.946Z,44.97
2017-09-06T05:59:49.549Z,44.75
2017-09-06T06:02:17.178Z,45.04
2017-09-06T06:04:44.761Z,45.03
2017-09-06T06:07:12.585Z,44.83
2017-09-06T06:09:40.219Z,45.19
2017-09-06T06:12:08.251Z,44.78
2017-09-06T06:14:36.094Z,44.14
2017-09-06T06:17:03.944Z,44.93
2017-09-06T06:19:31.654Z,44.65
2017-09-06T06:21:59.404Z,44.09
2017-09-06T06:24:27.109Z,42.97
2017-09-06T06:26:54.990Z,41.17
2017-09-06T06:29:22.666Z,38.85
2017-09-06T06:31:50.347Z,36.84
2017-09-06T06:34:18.132Z,35.57
2017-09-06T06:36:45.897Z,34.46
2017-09-06T06:39:13.559Z,34.19
2017-09-06T06:41:41.434Z,32.87
2017-09-06T06:44:09.107Z,32.00
2017-09-06T06:46:36.820Z,32.33
2017-09-06T06:49:04.573Z,31.28
2017-09-06T06:51:32.243Z,31.66
2017-09-06T06:54:00.069Z,30.35
2017-09-06T06:56:27.706Z,28.66
2017-09-06T06:58:55.406Z,29.25
2017-09-06T07:01:23.971Z,30.91
2017-09-06T07:03:51.533Z,33.20
2017-09-06T07:06:19.096Z,33.28
2017-09-06T07:08:46.737Z,33.84
2017-09-06T07:11:14.376Z,36.03
2017-09-06T07:13:41.950Z,36.67
2017-09-06T07:16:10.027Z,36.29
2017-09-06T07:18:38.583Z,37.26
2017-09-06T07:21:07.037Z,36.61
2017-09-06T07:23:35.091Z,36.98
2017-09-06T07:26:03.024Z,37.58
2017-09-06T07:28:30.794Z,38.19
2017-09-06T07:30:58.732Z,38.39
2017-09-06T07:33:27.582Z,38.81
2017-09-06T07:35:55.551Z,39.56
2017-09-06T07:38:23.794Z,37.42
2017-09-06T07:40:51.522Z,35.60
2017-09-06T07:43:20.058Z,36.48
2017-09-06T07:45:48.266Z,34.99
2017-09-06T07:48:16.218Z,34.14
2017-09-06T07:50:44.093Z,34.60
2017-09-06T07:53:12.252Z,34.55
2017-09-06T07:55:41.011Z,35.29
2017-09-06T07:58:09.011Z,34.60
2017-09-06T08:00:37.433Z,33.57
2017-09-06T08:03:06.734Z,33.39
2017-09-06T08:05:34.748Z,32.51
2017-09-06T08:08:07.324Z,32.58
2017-09-06T08:10:35.081Z,31.12
2017-09-06T08:13:02.785Z,33.19
2017-09-06T08:15:30.533Z,31.40
2017-09-06T08:17:58.168Z,31.36
2017-09-06T08:20:25.754Z,31.18
2017-09-06T08:22:53.618Z,31.92
2017-09-06T08:25:21.145Z,31.73
2017-09-06T08:27:48.765Z,31.44
2017-09-06T08:30:16.492Z,31.36
2017-09-06T08:32:44.134Z,30.07
2017-09-06T08:35:12.163Z,31.36
2017-09-06T08:37:39.920Z,30.34
2017-09-06T08:40:07.543Z,29.02
2017-09-06T08:42:35.061Z,29.40
2017-09-06T08:45:02.644Z,30.09
2017-09-06T08:47:30.259Z,29.36
2017-09-06T08:49:58.030Z,30.23
2017-09-06T08:52:25.664Z,29.03
2017-09-06T08:54:53.408Z,28.70
2017-09-06T08:57:20.993Z,28.18
2017-09-06T08:59:48.631Z,28.96
2017-09-06T09:02:16.257Z,29.07
2017-09-06T09:04:43.847Z,28.39
2017-09-06T09:07:11.405Z,28.56
2017-09-06T09:09:38.993Z,27.89
2017-09-06T09:12:06.755Z,28.60
2017-09-06T09:14:34.439Z,28.80
2017-09-06T09:17:02.775Z,29.24
2017-09-06T09:19:36.466Z,28.88
2017-09-06T09:22:08.536Z,29.28
2017-09-06T09:24:36.111Z,29.84
2017-09-06T09:27:03.909Z,29.28
2017-09-06T09:29:31.728Z,28.86
2017-09-06T09:31:59.345Z,28.96
2017-09-06T09:34:26.944Z,28.92
2017-09-06T09:36:54.475Z,28.38
2017-09-06T09:39:22.046Z,28.39
2017-09-06T09:41:49.820Z,28.80
2017-09-06T09:44:17.375Z,28.10
2017-09-06T09:46:44.949Z,27.76
2017-09-06T09:49:12.539Z,27.52
2017-09-06T09:51:40.289Z,26.03
2017-09-06T09:54:07.880Z,25.90
2017-09-06T09:56:35.449Z,25.87
2017-09-06T09:59:02.980Z,25.83
2017-09-06T10:01:30.587Z,25.80
2017-09-06T10:03:58.160Z,26.18
2017-09-06T10:06:26.649Z,25.41
2017-09-06T10:08:54.241Z,26.27
2017-09-06T10:11:21.760Z,25.76
2017-09-06T10:13:49.352Z,25.88
2017-09-06T10:16:16.950Z,25.57
2017-09-06T10:18:44.572Z,25.41
2017-09-06T10:21:12.137Z,25.75
2017-09-06T10:23:39.743Z,25.65
2017-09-06T10:26:07.280Z,25.56
2017-09-06T10:28:34.808Z,25.49
2017-09-06T10:31:02.591Z,25.42
2017-09-06T10:33:30.133Z,25.51
2017-09-06T10:35:57.730Z,25.40
2017-09-06T10:38:25.285Z,25.41
2017-09-06T10:40:53.076Z,25.95
2017-09-06T10:43:20.580Z,25.95
2017-09-06T10:45:48.217Z,25.66
2017-09-06T10:48:15.800Z,25.82
2017-09-06T10:50:43.707Z,25.51
2017-09-06T10:53:11.265Z,25.47
2017-09-06T10:55:38.795Z,25.84
2017-09-06T10:58:06.327Z,25.85
2017-09-06T11:00:33.963Z,25.64
2017-09-06T11:03:01.513Z,25.39
2017-09-06T11:05:29.025Z,26.05
2017-09-06T11:07:56.624Z,25.48
2017-09-06T11:10:24.139Z,25.70
2017-09-06T11:12:51.881Z,25.98
2017-09-06T11:15:19.925Z,25.72
2017-09-06T11:17:47.475Z,25.85
2017-09-06T11:20:14.995Z,25.66
2017-09-06T11:22:42.556Z,25.89
2017-09-06T11:25:10.075Z,25.64
2017-09-06T11:27:37.637Z,26.01
2017-09-06T11:30:06.774Z,25.90
2017-09-06T11:32:36.204Z,25.56
2017-09-06T11:35:04.069Z,25.79
2017-09-06T11:37:31.637Z,25.72
2017-09-06T11:39:59.164Z,25.91
2017-09-06T11:42:27.003Z,25.73
2017-09-06T11:44:54.723Z,26.03
2017-09-06T11:47:22.340Z,26.13
2017-09-06T11:49:49.883Z,26.07
2017-09-06T11:52:20.581Z,26.23
2017-09-06T11:54:48.185Z,26.59
2017-09-06T11:57:15.704Z,26.42
2017-09-06T11:59:43.266Z,26.17
2017-09-06T12:02:11.198Z,26.23
2017-09-06T12:04:38.791Z,25.92
2017-09-06T12:07:06.433Z,26.08
2017-09-06T12:09:34.052Z,26.25
2017-09-06T12:12:01.855Z,26.52
2017-09-06T12:14:29.504Z,26.77
2017-09-06T12:16:57.146Z,26.44
2017-09-06T12:19:26.806Z,26.42
2017-09-06T12:21:54.364Z,26.36
2017-09-06T12:24:21.955Z,26.65
2017-09-06T12:26:49.516Z,26.77
2017-09-06T12:29:17.029Z,26.49
2017-09-06T12:31:44.807Z,25.76
2017-09-06T12:34:12.341Z,25.87
2017-09-06T12:36:39.905Z,25.79
2017-09-06T12:39:07.493Z,25.36
2017-09-06T12:41:35.066Z,25.14
2017-09-06T12:44:02.703Z,25.33
2017-09-06T12:46:31.190Z,25.14
2017-09-06T12:48:59.130Z,24.87
2017-09-06T12:51:27.632Z,24.65
2017-09-06T12:53:55.488Z,24.52
2017-09-06T12:56:23.079Z,24.52
2017-09-06T12:59:16.484Z,24.77
2017-09-06T13:01:44.061Z,24.97
2017-09-06T13:04:11.566Z,24.84
2017-09-06T13:06:39.136Z,25.10
2017-09-06T13:09:06.715Z,25.12
2017-09-06T13:11:35.725Z,25.30
2017-09-06T13:14:03.363Z,25.30
2017-09-06T13:19:29.678Z,25.03
2017-09-06T13:21:57.251Z,25.04
2017-09-06T13:24:24.783Z,25.50
2017-09-06T13:26:52.350Z,25.36
2017-09-06T13:29:19.935Z,25.53
2017-09-06T13:31:47.508Z,25.53
2017-09-06T13:34:15.068Z,25.62
2017-09-06T13:36:42.613Z,26.17
2017-09-06T13:39:10.194Z,25.81
2017-09-06T13:41:37.706Z,26.06
2017-09-06T13:44:05.491Z,25.86
2017-09-06T13:46:33.103Z,26.12
2017-09-06T13:49:00.707Z,26.21
2017-09-06T13:51:28.274Z,25.87
2017-09-06T13:53:55.849Z,26.10
2017-09-06T13:56:23.581Z,26.30
2017-09-06T13:58:51.112Z,26.09
2017-09-06T14:01:18.708Z,26.07
2017-09-06T14:03:46.231Z,26.25
2017-09-06T14:06:13.965Z,26.31
2017-09-06T14:08:41.560Z,26.50
2017-09-06T14:11:09.862Z,26.42
2017-09-06T14:13:37.532Z,26.29
2017-09-06T14:16:05.938Z,26.35
2017-09-06T14:18:33.814Z,26.31
2017-09-06T14:21:01.387Z,26.77
2017-09-06T14:23:29.157Z,26.66
2017-09-06T14:25:56.735Z,26.55
2017-09-06T14:28:24.514Z,26.51
2017-09-06T14:30:52.087Z,26.50
2017-09-06T14:33:19.840Z,26.16
2017-09-06T14:35:47.392Z,26.64
2017-09-06T14:38:14.943Z,26.11
2017-09-06T14:40:42.594Z,26.53
2017-09-06T14:43:10.369Z,26.50
2017-09-06T14:45:38.005Z,26.87
2017-09-06T14:48:05.597Z,26.68
2017-09-06T14:50:33.192Z,27.01
2017-09-06T14:53:00.932Z,27.03
2017-09-06T14:55:28.600Z,26.75
2017-09-06T14:57:56.135Z,26.93
2017-09-06T15:00:23.736Z,27.01
2017-09-06T15:02:51.272Z,27.08
2017-09-06T15:05:19.137Z,26.92
2017-09-06T15:07:46.752Z,26.85
2017-09-06T15:10:14.404Z,26.82
2017-09-06T15:12:41.952Z,26.96
2017-09-06T15:15:09.561Z,26.81
2017-09-06T15:17:37.121Z,27.12
2017-09-06T15:20:04.668Z,27.07
2017-09-06T15:22:32.248Z,27.28
2017-09-06T15:25:00.035Z,27.56
2017-09-06T15:27:27.659Z,27.80
2017-09-06T15:29:55.207Z,27.97
2017-09-06T15:32:22.809Z,27.61
2017-09-06T15:34:50.600Z,27.57
2017-09-06T15:37:18.574Z,27.75
2017-09-06T15:39:46.334Z,27.81
2017-09-06T15:42:13.926Z,27.80
2017-09-06T15:44:41.465Z,27.53
2017-09-06T15:47:09.929Z,27.68
2017-09-06T15:49:38.341Z,27.95
2017-09-06T15:52:06.124Z,28.10
2017-09-06T15:54:33.696Z,28.17
2017-09-06T15:57:01.681Z,28.25
2017-09-06T15:59:29.289Z,28.78
2017-09-06T16:05:28.333Z,28.38
2017-09-06T16:07:56.142Z,28.71
2017-09-06T16:10:23.701Z,28.80
2017-09-06T16:12:51.287Z,29.32
2017-09-06T16:15:18.865Z,29.10
2017-09-06T16:17:46.433Z,29.01
2017-09-06T16:20:14.114Z,29.55
2017-09-06T16:22:41.640Z,29.28
2017-09-06T16:25:09.217Z,29.41
2017-09-06T16:27:36.820Z,29.53
2017-09-06T16:30:11.552Z,29.64
2017-09-06T16:32:39.656Z,30.00
2017-09-06T16:35:07.255Z,30.22
2017-09-06T16:37:35.141Z,30.03
2017-09-06T16:40:05.101Z,30.41
2017-09-06T16:45:43.663Z,30.61
2017-09-06T16:48:24.537Z,30.94
2017-09-06T16:50:52.183Z,30.82
2017-09-06T16:53:30.869Z,31.14
2017-09-06T16:55:58.467Z,30.94
2017-09-06T16:58:26.255Z,31.23
2017-09-06T17:00:53.838Z,30.99
2017-09-06T17:03:21.366Z,31.17
2017-09-06T17:05:48.904Z,31.15
2017-09-06T17:08:16.774Z,31.30
2017-09-06T17:10:44.355Z,31.45
2017-09-06T17:13:11.956Z,31.71
2017-09-06T17:15:39.554Z,31.86
2017-09-06T17:18:07.087Z,32.06
2017-09-06T17:20:34.701Z,31.61
2017-09-06T17:23:02.368Z,31.88
2017-09-06T17:25:30.017Z,31.44
2017-09-06T17:27:57.631Z,31.73
2017-09-06T17:30:25.372Z,32.35
2017-09-06T17:32:53.069Z,32.50
2017-09-06T17:35:20.621Z,32.50
2017-09-06T17:37:48.303Z,32.46
2017-09-06T17:40:15.888Z,32.31
2017-09-06T17:42:43.445Z,32.44
2017-09-06T17:45:11.036Z,32.36
2017-09-06T17:47:38.859Z,32.84
2017-09-06T17:50:06.518Z,32.52
2017-09-06T17:52:34.102Z,32.66
2017-09-06T17:55:01.852Z,33.48
2017-09-06T17:57:29.427Z,33.38
2017-09-06T17:59:57.185Z,33.46
2017-09-06T18:02:24.856Z,34.01
2017-09-06T18:04:52.634Z,33.86
2017-09-06T18:07:20.208Z,34.13
2017-09-06T18:09:47.919Z,33.63
2017-09-06T18:12:16.112Z,34.34
2017-09-06T18:14:43.819Z,34.20
2017-09-06T18:17:12.359Z,33.98
2017-09-06T18:19:40.889Z,35.05
2017-09-06T18:22:10.054Z,33.84
2017-09-06T18:24:37.852Z,34.07
2017-09-06T18:27:06.808Z,35.38
2017-09-06T18:29:35.411Z,35.92
2017-09-06T18:32:03.092Z,36.35
2017-09-06T18:34:30.713Z,36.63
2017-09-06T18:36:58.948Z,36.67
2017-09-06T18:39:34.271Z,36.55
2017-09-06T18:42:01.936Z,35.89
2017-09-06T18:44:29.632Z,35.62
2017-09-06T18:46:57.245Z,36.05
2017-09-06T18:49:24.848Z,36.28
2017-09-06T18:51:52.464Z,36.25
2017-09-06T18:54:20.049Z,36.38
2017-09-06T18:56:48.562Z,36.52
2017-09-06T18:59:16.222Z,36.56
2017-09-06T19:01:48.900Z,36.65
2017-09-06T19:04:19.396Z,36.74
2017-09-06T19:06:49.073Z,36.96
2017-09-06T19:09:16.853Z,36.93
2017-09-06T19:11:45.078Z,37.25
2017-09-06T19:14:13.673Z,37.17
2017-09-06T19:16:41.757Z,41.97
2017-09-06T19:19:09.576Z,37.99
2017-09-06T19:21:37.408Z,38.39
2017-09-06T19:24:05.408Z,38.63
2017-09-06T19:26:32.975Z,38.34
2017-09-06T19:29:00.535Z,38.26
2017-09-06T19:31:28.205Z,38.23
2017-09-06T19:33:56.126Z,38.68
2017-09-06T19:36:23.777Z,37.93
2017-09-06T19:38:51.402Z,38.70
2017-09-06T19:41:20.423Z,38.56
2017-09-06T19:43:48.060Z,38.89
2017-09-06T19:46:15.689Z,39.58
2017-09-06T19:48:43.338Z,40.15
2017-09-06T19:51:11.612Z,40.56
2017-09-06T19:53:39.189Z,40.58
2017-09-06T19:56:07.701Z,40.83
2017-09-06T19:58:35.821Z,41.03
2017-09-06T20:01:03.529Z,41.81
2017-09-06T20:03:31.095Z,41.57
2017-09-06T20:06:00.435Z,42.23
2017-09-06T20:08:28.011Z,42.41
2017-09-06T20:10:55.587Z,42.52
2017-09-06T20:13:23.351Z,42.17
2017-09-06T20:15:51.372Z,42.53
2017-09-06T20:18:19.816Z,42.38
2017-09-06T20:20:48.455Z,42.49
2017-09-06T20:23:43.121Z,43.16
2017-09-06T20:26:59.146Z,42.46
2017-09-06T20:29:28.313Z,41.85
2017-09-06T20:31:56.059Z,42.26
2017-09-06T20:34:23.945Z,42.04
2017-09-06T20:36:52.064Z,42.54
2017-09-06T20:39:19.716Z,42.29
2017-09-06T20:45:17.919Z,42.71
2017-09-06T20:47:45.602Z,42.72
2017-09-06T20:53:46.396Z,43.52
2017-09-06T20:56:26.726Z,43.92
2017-09-06T20:58:54.321Z,42.54
2017-09-06T21:01:22.802Z,42.77
2017-09-06T21:03:51.525Z,42.95
2017-09-06T21:06:20.759Z,43.40
2017-09-06T21:08:48.627Z,43.98
2017-09-06T21:11:16.822Z,44.54
2017-09-06T21:13:44.588Z,44.90
2017-09-06T21:16:13.155Z,45.05
2017-09-06T21:18:40.958Z,45.06
2017-09-06T21:21:35.729Z,45.66
2017-09-06T21:27:21.777Z,46.24
2017-09-06T21:29:49.543Z,46.07
2017-09-06T21:39:18.648Z,46.81
2017-09-06T21:41:47.126Z,46.86
2017-09-06T21:44:14.915Z,47.24
2017-09-06T21:46:43.403Z,46.49
2017-09-06T21:49:11.942Z,46.93
2017-09-06T21:51:39.693Z,47.24
2017-09-06T21:54:07.308Z,46.72
2017-09-06T21:56:34.855Z,46.85
2017-09-06T21:59:02.408Z,45.86
2017-09-06T22:01:30.361Z,46.04
2017-09-06T22:03:57.888Z,46.43
2017-09-06T22:06:25.420Z,46.82
2017-09-06T22:08:53.160Z,47.25
2017-09-06T22:11:21.381Z,47.18
2017-09-06T22:13:49.135Z,47.59
2017-09-06T22:16:16.724Z,47.86
2017-09-06T22:18:44.301Z,47.58
2017-09-06T22:21:11.840Z,47.99
2017-09-06T22:23:39.475Z,47.85
2017-09-06T22:26:07.913Z,47.20
2017-09-06T22:28:36.598Z,46.69
2017-09-06T22:31:04.512Z,46.70
2017-09-06T22:33:32.052Z,46.78
2017-09-06T22:35:59.583Z,46.88
2017-09-06T22:38:27.199Z,46.89
2017-09-06T22:40:54.942Z,47.17
2017-09-06T22:43:22.614Z,47.11
2017-09-06T22:45:50.215Z,46.89
2017-09-06T22:48:17.763Z,46.94
2017-09-06T22:50:46.176Z,46.87
2017-09-06T22:53:13.752Z,46.81
2017-09-06T22:55:42.917Z,46.72
2017-09-06T22:58:10.443Z,46.23
2017-09-06T23:00:39.296Z,46.64
2017-09-06T23:03:06.892Z,47.38
2017-09-06T23:05:34.550Z,47.75
2017-09-06T23:08:02.116Z,47.40
2017-09-06T23:10:29.626Z,47.42
2017-09-06T23:12:57.752Z,47.23
2017-09-06T23:15:25.606Z,47.12
2017-09-06T23:17:53.295Z,46.85
2017-09-06T23:20:20.821Z,46.48
2017-09-06T23:22:48.399Z,47.12
2017-09-06T23:25:15.927Z,47.68
2017-09-06T23:27:44.867Z,47.70
2017-09-06T23:30:13.502Z,49.64
2017-09-06T23:32:41.027Z,50.13
2017-09-06T23:35:08.796Z,49.12
2017-09-06T23:37:36.342Z,49.66
2017-09-06T23:40:03.888Z,49.12
2017-09-06T23:42:31.398Z,49.14
2017-09-06T23:44:58.967Z,49.53
2017-09-06T23:47:26.492Z,49.94
2017-09-06T23:49:54.252Z,49.75
2017-09-06T23:52:21.814Z,49.89
2017-09-06T23:54:49.326Z,49.62
2017-09-06T23:57:17.400Z,49.44
2017-09-06T23:59:44.947Z,49.23
